Time;durP1;ratioP1;P1;durP2;ratioP2;P2;SDS_P1;SDS_P2;PMS_P1;PMS_P2;Temp;Humidity;BMP_temperature;BMP_pressure;BME280_temperature;BME280_humidity;BME280_pressure;Samples;Min_cycle;Max_cycle;Signal;HPM_P1;HPM_P2
2021/09/24 00:00:26;;;;;;;12.68;7.88;;;;;;;10.55;89.74;98535.19;5076187;28;20074;-52
2021/09/24 00:02:53;;;;;;;14.25;8.30;;;;;;;10.54;90.39;98536.09;5083633;28;20044;-48
2021/09/24 00:05:19;;;;;;;13.32;8.27;;;;;;;10.54;90.30;98533.50;5090418;28;20085;-49
2021/09/24 00:07:45;;;;;;;14.30;8.50;;;;;;;10.53;90.46;98528.38;5088311;28;20059;-52
2021/09/24 00:10:11;;;;;;;13.40;8.60;;;;;;;10.50;91.17;98538.94;5080331;28;20044;-49
2021/09/24 00:12:38;;;;;;;12.93;8.25;;;;;;;10.40;91.49;98520.41;5089531;28;20072;-50
2021/09/24 00:15:05;;;;;;;14.10;8.95;;;;;;;10.43;91.25;98529.78;5097779;28;20046;-49
2021/09/24 00:17:31;;;;;;;13.95;8.73;;;;;;;10.39;91.80;98529.09;5116831;27;20035;-50
2021/09/24 00:19:57;;;;;;;13.07;8.48;;;;;;;10.28;92.39;98523.63;5104627;28;20519;-52
2021/09/24 00:22:22;;;;;;;13.93;8.98;;;;;;;10.23;92.72;98519.59;5076576;28;20035;-51
2021/09/24 00:24:49;;;;;;;15.13;8.13;;;;;;;10.26;92.83;98532.44;5076746;28;20457;-50
2021/09/24 00:27:14;;;;;;;13.75;8.55;;;;;;;10.24;93.39;98529.06;5076444;28;20048;-48
2021/09/24 00:29:40;;;;;;;11.25;7.25;;;;;;;10.25;93.27;98528.16;5076100;28;20040;-49
2021/09/24 00:32:06;;;;;;;13.55;8.05;;;;;;;10.28;92.72;98528.81;5058321;28;20070;-53
2021/09/24 00:34:32;;;;;;;15.13;8.88;;;;;;;10.29;93.06;98532.25;5075174;28;20397;-50
2021/09/24 00:36:58;;;;;;;16.92;9.80;;;;;;;10.30;93.10;98528.75;5076212;28;20131;-50
2021/09/24 00:39:24;;;;;;;19.00;10.35;;;;;;;10.33;93.23;98521.63;5082757;28;20032;-50
2021/09/24 00:41:49;;;;;;;21.77;11.40;;;;;;;10.34;93.11;98517.28;5077613;28;20044;-48
2021/09/24 00:44:15;;;;;;;21.75;11.32;;;;;;;10.35;93.40;98519.81;5076277;28;20044;-49
2021/09/24 00:46:41;;;;;;;33.00;15.15;;;;;;;10.33;93.06;98516.44;5091835;28;20036;-54
2021/09/24 00:49:07;;;;;;;28.98;14.07;;;;;;;10.31;93.40;98515.66;5086089;28;20036;-51
2021/09/24 00:51:32;;;;;;;30.90;14.45;;;;;;;10.31;93.55;98505.25;5096477;28;20561;-50
2021/09/24 00:53:58;;;;;;;28.08;13.80;;;;;;;10.31;93.60;98509.66;5078459;28;20048;-49
2021/09/24 00:56:24;;;;;;;29.02;13.35;;;;;;;10.33;94.31;98502.59;5091504;28;20119;-52
2021/09/24 00:58:50;;;;;;;29.48;14.23;;;;;;;10.34;93.45;98504.28;5075107;28;20044;-52
2021/09/24 01:01:16;;;;;;;19.90;10.68;;;;;;;10.35;93.95;98511.16;5075738;28;20036;-52
2021/09/24 01:03:41;;;;;;;13.13;7.75;;;;;;;10.31;93.39;98509.66;5074836;28;20040;-52
2021/09/24 01:06:07;;;;;;;15.57;9.63;;;;;;;10.27;93.50;98485.56;5083878;28;20052;-52
2021/09/24 01:08:33;;;;;;;12.52;8.00;;;;;;;10.35;93.00;98503.38;5081305;28;20419;-52
2021/09/24 01:10:59;;;;;;;14.95;8.25;;;;;;;10.34;93.06;98497.34;5095890;28;20125;-53
2021/09/24 01:13:25;;;;;;;11.55;6.63;;;;;;;10.29;92.85;98494.13;5116759;27;20518;-56
2021/09/24 01:15:51;;;;;;;11.00;6.82;;;;;;;10.34;92.60;98496.50;5116848;27;20047;-53
2021/09/24 01:18:17;;;;;;;11.32;7.25;;;;;;;10.27;92.25;98500.31;5078415;27;20058;-53
2021/09/24 01:20:43;;;;;;;11.30;7.00;;;;;;;10.22;93.18;98491.91;5094601;28;20035;-55
2021/09/24 01:23:09;;;;;;;18.63;7.57;;;;;;;10.16;92.48;98496.50;5096311;28;20050;-52
2021/09/24 01:25:34;;;;;;;13.05;6.55;;;;;;;10.07;93.16;98478.78;5092469;28;20036;-47
2021/09/24 01:28:00;;;;;;;11.00;6.65;;;;;;;10.16;92.82;98491.31;5078674;28;20512;-53
2021/09/24 01:30:26;;;;;;;10.55;6.88;;;;;;;10.06;92.59;98474.50;5072567;28;20047;-48
2021/09/24 01:32:52;;;;;;;9.55;6.70;;;;;;;10.13;92.70;98481.06;5072236;28;20037;-51
2021/09/24 01:35:18;;;;;;;10.45;6.45;;;;;;;10.13;92.73;98490.63;5071577;28;20596;-55
2021/09/24 01:37:44;;;;;;;10.30;6.55;;;;;;;10.04;92.81;98478.97;5072551;28;20044;-52
2021/09/24 01:40:13;;;;;;;8.85;6.03;;;;;;;9.89;93.10;98474.53;5080930;28;20123;-53
2021/09/24 01:42:38;;;;;;;9.63;5.90;;;;;;;9.89;93.21;98479.72;5054162;28;20138;-55
2021/09/24 01:45:05;;;;;;;9.32;5.43;;;;;;;9.84;92.21;98470.50;5072303;28;20131;-53
2021/09/24 01:47:30;;;;;;;10.07;5.78;;;;;;;9.81;92.10;98468.06;5072538;28;20040;-51
2021/09/24 01:50:08;;;;;;;9.05;6.63;;;;;;;9.81;91.40;98466.28;5091104;28;20404;-52
2021/09/24 01:52:34;;;;;;;8.15;5.57;;;;;;;9.87;91.55;98468.59;5092069;28;20426;-54
2021/09/24 01:55:00;;;;;;;10.45;6.30;;;;;;;9.89;91.86;98473.72;5090002;28;20050;-57
2021/09/24 01:57:26;;;;;;;9.48;6.30;;;;;;;9.92;90.81;98468.34;5085345;28;20052;-52
2021/09/24 01:59:51;;;;;;;7.68;5.20;;;;;;;9.80;89.88;98462.00;5092332;28;20036;-53
2021/09/24 02:02:18;;;;;;;10.77;6.13;;;;;;;9.73;89.81;98460.66;5090886;28;20074;-53
2021/09/24 02:04:43;;;;;;;7.88;5.30;;;;;;;9.61;90.52;98441.34;5073439;28;20040;-51
2021/09/24 02:07:09;;;;;;;8.32;5.20;;;;;;;9.73;89.47;98463.25;5071871;28;20106;-52
2021/09/24 02:09:35;;;;;;;9.23;5.85;;;;;;;9.71;88.92;98447.75;5080610;28;20455;-51
2021/09/24 02:12:00;;;;;;;8.10;5.07;;;;;;;9.79;89.18;98452.53;5092008;28;20035;-52
2021/09/24 02:14:26;;;;;;;12.95;6.10;;;;;;;9.81;88.93;98449.88;5089761;28;20423;-52
2021/09/24 02:16:52;;;;;;;8.20;5.53;;;;;;;9.85;88.92;98452.25;5077550;28;20044;-54
2021/09/24 02:19:17;;;;;;;9.23;5.70;;;;;;;9.88;88.62;98448.66;5062066;28;20043;-53
2021/09/24 02:21:43;;;;;;;9.05;5.78;;;;;;;9.91;88.98;98448.50;5070396;28;20040;-49
2021/09/24 02:24:09;;;;;;;10.60;5.32;;;;;;;9.88;88.44;98448.66;5071055;28;20045;-51
2021/09/24 02:26:35;;;;;;;7.10;5.05;;;;;;;9.77;87.87;98444.88;5082298;28;20108;-50
2021/09/24 02:29:01;;;;;;;5.72;3.80;;;;;;;9.74;87.97;98446.75;5090429;28;20786;-49
2021/09/24 02:31:26;;;;;;;8.05;4.47;;;;;;;9.62;87.05;98440.44;5090367;28;20058;-51
2021/09/24 02:33:52;;;;;;;7.78;4.18;;;;;;;9.60;86.47;98451.81;5091333;28;20031;-49
2021/09/24 02:36:18;;;;;;;7.35;4.30;;;;;;;9.58;86.18;98443.25;5081066;28;20427;-51
2021/09/24 02:38:43;;;;;;;4.85;2.97;;;;;;;9.45;84.01;98449.97;5073020;28;20045;-50
2021/09/24 02:41:11;;;;;;;4.22;2.90;;;;;;;9.24;84.05;98431.13;5077945;28;20135;-52
2021/09/24 02:43:37;;;;;;;3.65;2.60;;;;;;;9.26;84.03;98450.06;5071151;28;20041;-50
2021/09/24 02:46:03;;;;;;;5.95;2.70;;;;;;;9.23;83.50;98445.00;5070867;28;20052;-53
2021/09/24 02:48:28;;;;;;;5.22;2.70;;;;;;;9.25;83.65;98446.63;5072356;28;20036;-50
2021/09/24 02:50:54;;;;;;;4.07;2.80;;;;;;;9.34;83.40;98445.31;5070984;28;20037;-50
2021/09/24 02:53:20;;;;;;;5.05;2.88;;;;;;;9.36;83.03;98446.09;5071142;28;20051;-51
2021/09/24 02:55:46;;;;;;;3.05;2.08;;;;;;;9.27;81.47;98436.16;5070549;28;20098;-54
2021/09/24 02:58:11;;;;;;;3.92;2.10;;;;;;;9.21;81.05;98447.66;5081995;28;20534;-52
2021/09/24 03:00:37;;;;;;;2.83;2.00;;;;;;;9.19;80.33;98449.50;5111506;28;20414;-51
2021/09/24 03:03:03;;;;;;;3.30;2.05;;;;;;;9.16;79.76;98441.03;5110024;28;20075;-53
2021/09/24 03:05:28;;;;;;;3.25;1.65;;;;;;;9.20;78.74;98443.41;5110848;28;20036;-53
2021/09/24 03:07:54;;;;;;;2.80;1.92;;;;;;;9.21;79.18;98441.66;5091760;28;20048;-52
2021/09/24 03:10:19;;;;;;;3.65;2.05;;;;;;;9.17;78.96;98434.91;5091131;28;20039;-56
2021/09/24 03:12:45;;;;;;;4.05;2.40;;;;;;;9.03;79.43;98440.78;5090889;28;20507;-52
2021/09/24 03:15:12;;;;;;;4.55;1.75;;;;;;;9.00;80.31;98434.91;5089341;28;20036;-53
2021/09/24 03:17:38;;;;;;;3.90;2.45;;;;;;;8.96;79.97;98434.19;5087855;28;20419;-54
2021/09/24 03:20:06;;;;;;;2.90;1.80;;;;;;;8.85;80.01;98428.69;5080681;28;20040;-51
2021/09/24 03:22:32;;;;;;;2.80;1.95;;;;;;;8.67;80.25;98424.38;5090789;28;20039;-53
2021/09/24 03:24:58;;;;;;;4.10;2.00;;;;;;;8.68;80.30;98439.88;5090530;28;20529;-55
2021/09/24 03:27:23;;;;;;;2.85;1.80;;;;;;;8.63;80.22;98438.41;5078302;28;20044;-53
2021/09/24 03:29:49;;;;;;;1.88;1.42;;;;;;;8.57;80.51;98438.66;5069082;28;20079;-53
2021/09/24 03:32:19;;;;;;;4.53;2.15;;;;;;;8.52;80.15;98431.13;5069129;28;20094;-49
2021/09/24 03:34:46;;;;;;;4.85;2.30;;;;;;;8.47;80.40;98422.72;5070333;28;20044;-49
2021/09/24 03:37:11;;;;;;;3.05;1.92;;;;;;;8.53;80.77;98430.19;5068627;28;20041;-53
2021/09/24 03:39:37;;;;;;;4.53;2.40;;;;;;;8.48;81.34;98434.72;5079170;28;20031;-52
2021/09/24 03:42:04;;;;;;;4.22;1.88;;;;;;;8.40;80.18;98437.69;5070422;28;20039;-56
2021/09/24 03:44:34;;;;;;;3.40;2.00;;;;;;;8.38;80.42;98442.09;5035970;28;20080;-51
2021/09/24 03:47:00;;;;;;;4.38;1.80;;;;;;;8.24;80.35;98413.38;5068399;28;20064;-49
2021/09/24 03:49:26;;;;;;;3.63;2.08;;;;;;;8.38;80.54;98442.09;5081565;28;20078;-53
2021/09/24 03:51:52;;;;;;;3.58;2.17;;;;;;;8.38;80.25;98439.50;5104496;28;20135;-54
2021/09/24 03:54:18;;;;;;;3.17;2.10;;;;;;;8.43;80.36;98441.88;5110754;28;20054;-53
2021/09/24 03:56:44;;;;;;;2.95;1.90;;;;;;;8.36;79.56;98420.63;5102602;28;20516;-51
2021/09/24 03:59:11;;;;;;;4.35;2.08;;;;;;;8.33;79.07;98432.84;5069397;28;20109;-51
2021/09/24 04:01:37;;;;;;;3.28;1.80;;;;;;;8.22;78.30;98414.34;5070309;28;20036;-49
2021/09/24 04:04:03;;;;;;;3.63;2.00;;;;;;;8.13;78.09;98405.25;5068940;28;20048;-49
2021/09/24 04:06:30;;;;;;;5.05;2.42;;;;;;;8.13;78.33;98401.81;5070932;28;20117;-48
2021/09/24 04:08:55;;;;;;;3.13;2.20;;;;;;;8.26;78.07;98428.84;5074270;28;20250;-48
2021/09/24 04:11:21;;;;;;;6.60;2.58;;;;;;;8.28;78.43;98414.06;5089964;28;20419;-50
2021/09/24 04:13:47;;;;;;;4.22;2.85;;;;;;;8.27;78.17;98420.97;5090736;28;20880;-50
2021/09/24 04:16:13;;;;;;;4.22;2.22;;;;;;;8.30;78.27;98409.69;5080352;28;20078;-52
2021/09/24 04:18:39;;;;;;;4.80;2.63;;;;;;;8.37;78.28;98426.66;5070544;28;20400;-53
2021/09/24 04:21:04;;;;;;;4.32;2.35;;;;;;;8.46;77.95;98424.47;5076922;28;20055;-54
2021/09/24 04:23:31;;;;;;;3.50;1.73;;;;;;;8.56;77.32;98414.50;5083145;28;20045;-54
2021/09/24 04:25:56;;;;;;;5.57;1.83;;;;;;;8.66;77.09;98420.09;5084490;28;20046;-54
2021/09/24 04:28:22;;;;;;;4.95;2.55;;;;;;;8.74;76.75;98413.63;5084658;28;20047;-54
2021/09/24 04:30:48;;;;;;;3.85;1.85;;;;;;;8.82;76.51;98413.28;5084429;28;20461;-50
2021/09/24 04:33:13;;;;;;;3.55;2.53;;;;;;;8.83;76.01;98395.09;5068515;28;20041;-51
2021/09/24 04:35:39;;;;;;;5.00;2.53;;;;;;;8.99;75.76;98415.09;5078985;28;20040;-50
2021/09/24 04:38:05;;;;;;;5.22;2.63;;;;;;;8.91;75.44;98402.47;5085971;28;20568;-54
2021/09/24 04:40:32;;;;;;;8.15;3.53;;;;;;;8.98;74.91;98419.44;5080966;28;20508;-53
2021/09/24 04:42:57;;;;;;;5.38;2.60;;;;;;;8.96;75.22;98403.09;5078650;28;20095;-61
2021/09/24 04:45:23;;;;;;;6.05;2.55;;;;;;;8.96;74.79;98410.88;5088930;28;20530;-51
2021/09/24 04:47:48;;;;;;;6.13;2.55;;;;;;;9.00;74.80;98412.44;5076866;28;20032;-51
2021/09/24 04:50:14;;;;;;;4.95;2.70;;;;;;;9.04;75.28;98413.94;5085489;28;20507;-50
2021/09/24 04:52:40;;;;;;;3.65;2.67;;;;;;;9.04;75.30;98413.09;5082824;28;20152;-48
2021/09/24 04:55:07;;;;;;;8.90;2.65;;;;;;;9.03;75.02;98406.25;5087899;28;20044;-48
2021/09/24 04:57:33;;;;;;;5.50;2.75;;;;;;;9.17;74.95;98421.94;5079324;28;20092;-48
2021/09/24 04:59:59;;;;;;;5.25;2.90;;;;;;;9.25;74.97;98417.25;5070272;28;20071;-50
2021/09/24 05:02:25;;;;;;;6.82;2.60;;;;;;;9.40;74.99;98416.50;5082616;28;20089;-49
2021/09/24 05:04:50;;;;;;;4.95;2.72;;;;;;;9.40;74.11;98408.72;5091218;28;20048;-49
2021/09/24 05:07:16;;;;;;;10.18;3.10;;;;;;;9.43;75.06;98416.31;5092100;28;20047;-49
2021/09/24 05:09:42;;;;;;;7.68;2.95;;;;;;;9.55;74.25;98417.47;5089066;28;20074;-47
2021/09/24 05:12:08;;;;;;;6.85;3.20;;;;;;;9.57;74.44;98415.66;5087440;28;20047;-48
2021/09/24 05:14:33;;;;;;;6.95;2.83;;;;;;;9.60;74.52;98410.28;5082685;28;20040;-49
2021/09/24 05:17:06;;;;;;;6.90;2.70;;;;;;;9.68;74.03;98410.75;5082651;28;20031;-50
2021/09/24 05:19:32;;;;;;;4.63;2.72;;;;;;;9.76;73.67;98414.63;5074262;28;20140;-50
2021/09/24 05:21:57;;;;;;;5.53;2.47;;;;;;;9.85;73.69;98402.06;5085398;28;20116;-48
2021/09/24 05:24:23;;;;;;;6.88;2.28;;;;;;;9.91;72.76;98410.41;5082765;28;20048;-49
2021/09/24 05:26:49;;;;;;;5.03;2.92;;;;;;;9.92;72.80;98409.47;5072429;28;20044;-51
2021/09/24 05:29:14;;;;;;;4.72;2.70;;;;;;;9.89;72.66;98385.44;5072585;28;20093;-50
2021/09/24 05:31:40;;;;;;;7.45;2.90;;;;;;;9.98;72.58;98403.97;5072084;28;20040;-50
2021/09/24 05:34:06;;;;;;;5.88;2.75;;;;;;;10.03;72.38;98395.94;5054095;28;20094;-47
2021/09/24 05:36:32;;;;;;;5.15;2.22;;;;;;;10.12;70.98;98401.47;5074448;28;20068;-53
2021/09/24 05:38:57;;;;;;;5.70;2.90;;;;;;;10.30;70.22;98399.72;5091697;28;20044;-52
2021/09/24 05:41:23;;;;;;;5.28;2.40;;;;;;;10.39;69.25;98398.38;5077377;28;20138;-53
2021/09/24 05:43:50;;;;;;;4.32;2.55;;;;;;;10.45;68.15;98391.09;5072571;28;20528;-52
2021/09/24 05:46:17;;;;;;;4.15;2.58;;;;;;;10.39;68.15;98391.41;5072576;28;20040;-48
2021/09/24 05:48:43;;;;;;;4.60;2.25;;;;;;;10.46;68.45;98394.53;5079081;28;20518;-53
2021/09/24 05:51:09;;;;;;;6.80;3.40;;;;;;;10.44;67.59;98383.38;5083417;28;20055;-57
2021/09/24 05:53:34;;;;;;;5.15;2.30;;;;;;;10.43;67.84;98384.28;5071832;28;20037;-47
2021/09/24 05:56:01;;;;;;;5.47;2.75;;;;;;;10.36;66.99;98386.41;5072887;28;20036;-50
2021/09/24 05:58:27;;;;;;;5.20;2.63;;;;;;;10.37;67.20;98387.19;5071990;28;20043;-51
2021/09/24 06:00:53;;;;;;;7.10;3.20;;;;;;;10.33;66.93;98388.31;5071605;28;20044;-51
2021/09/24 06:03:18;;;;;;;4.28;2.38;;;;;;;10.29;67.45;98379.84;5071705;28;20047;-48
2021/09/24 06:05:44;;;;;;;3.53;2.15;;;;;;;10.32;67.04;98369.28;5072057;28;20060;-51
2021/09/24 06:08:10;;;;;;;3.72;2.33;;;;;;;10.50;65.55;98357.06;5071822;28;20044;-51
2021/09/24 06:10:39;;;;;;;3.67;2.60;;;;;;;10.73;64.30;98373.97;5069865;28;20055;-49
2021/09/24 06:13:06;;;;;;;3.90;2.28;;;;;;;10.81;64.42;98353.56;5070209;28;20040;-52
2021/09/24 06:15:32;;;;;;;5.55;2.92;;;;;;;10.91;64.20;98349.53;5071864;28;20102;-52
2021/09/24 06:17:57;;;;;;;3.25;2.20;;;;;;;11.09;63.86;98350.25;5070619;28;20134;-50
2021/09/24 06:20:23;;;;;;;8.23;2.90;;;;;;;11.20;63.52;98358.28;5072022;28;20056;-53
2021/09/24 06:22:50;;;;;;;4.63;2.78;;;;;;;11.12;64.29;98360.47;5085256;28;20044;-53
2021/09/24 06:25:17;;;;;;;4.47;2.95;;;;;;;11.28;63.89;98354.28;5087507;28;20036;-51
2021/09/24 06:27:43;;;;;;;4.75;2.85;;;;;;;11.36;63.74;98353.81;5091805;28;20047;-50
2021/09/24 06:30:12;;;;;;;5.20;3.10;;;;;;;11.65;63.39;98347.75;5091893;28;20066;-50
2021/09/24 06:32:38;;;;;;;3.67;2.30;;;;;;;11.83;61.92;98349.25;5076178;28;20052;-55
2021/09/24 06:35:05;;;;;;;4.72;2.35;;;;;;;12.07;60.82;98336.53;5071546;28;20127;-52
2021/09/24 06:37:30;;;;;;;5.47;2.45;;;;;;;12.53;59.61;98344.06;5071495;28;20078;-55
2021/09/24 06:39:56;;;;;;;3.75;2.75;;;;;;;13.12;58.63;98346.28;5071312;28;20040;-51
2021/09/24 06:42:22;;;;;;;4.30;2.88;;;;;;;13.94;56.07;98350.28;5071383;28;20036;-52
2021/09/24 06:44:48;;;;;;;5.03;2.80;;;;;;;14.66;54.33;98356.50;5071227;28;20146;-54
2021/09/24 06:47:16;;;;;;;4.07;2.53;;;;;;;14.77;52.53;98353.97;5071162;28;20044;-54
2021/09/24 06:49:41;;;;;;;8.35;2.83;;;;;;;14.07;54.49;98358.13;5086421;28;20040;-51
2021/09/24 06:52:07;;;;;;;4.90;2.90;;;;;;;13.51;55.43;98355.81;5084525;28;20047;-51
2021/09/24 06:54:33;;;;;;;6.18;2.25;;;;;;;12.94;56.36;98352.66;5071009;28;20044;-48
2021/09/24 06:56:59;;;;;;;5.88;2.78;;;;;;;12.76;56.99;98355.63;5071154;28;20048;-52
2021/09/24 06:59:25;;;;;;;4.70;2.38;;;;;;;12.42;57.72;98357.75;5070930;28;20038;-51
2021/09/24 07:01:50;;;;;;;4.53;2.20;;;;;;;12.25;58.55;98364.03;5071066;28;20040;-52
2021/09/24 07:04:16;;;;;;;5.18;2.63;;;;;;;12.08;58.92;98359.03;5070915;28;20094;-54
2021/09/24 07:06:42;;;;;;;4.82;2.40;;;;;;;12.16;59.21;98350.72;5069354;28;20524;-51
2021/09/24 07:09:08;;;;;;;4.63;2.55;;;;;;;12.24;59.29;98351.94;5069421;28;20048;-56
2021/09/24 07:11:34;;;;;;;3.95;2.63;;;;;;;12.19;59.47;98363.59;5070797;28;20055;-52
2021/09/24 07:14:01;;;;;;;5.60;2.70;;;;;;;11.99;59.97;98351.75;5070634;28;20064;-54
2021/09/24 07:16:27;;;;;;;7.05;2.40;;;;;;;11.90;60.30;98349.72;5070663;28;20066;-52
2021/09/24 07:18:53;;;;;;;5.05;2.25;;;;;;;11.79;60.81;98350.38;5070773;28;20508;-53
2021/09/24 07:21:19;;;;;;;5.18;3.00;;;;;;;11.84;60.87;98344.88;5070593;28;20508;-52
2021/09/24 07:36:59;;;;;;;3.92;2.63;;;;;;;12.10;60.39;98330.25;5166673;27;20390;-49
2021/09/24 07:39:25;;;;;;;4.35;2.45;;;;;;;12.05;60.42;98325.34;5154694;27;20034;-54
2021/09/24 07:41:50;;;;;;;4.50;2.58;;;;;;;12.15;60.49;98320.41;5145645;27;20095;-51
2021/09/24 07:44:16;;;;;;;4.78;2.67;;;;;;;12.13;60.25;98325.72;5162807;27;20045;-51
2021/09/24 07:46:44;;;;;;;4.63;2.08;;;;;;;12.02;60.38;98328.16;5162079;27;20038;-53
2021/09/24 07:49:10;;;;;;;3.08;2.20;;;;;;;11.84;61.04;98321.44;5145542;27;20068;-53
2021/09/24 07:51:36;;;;;;;3.55;2.28;;;;;;;11.72;61.78;98328.22;5145802;27;20039;-52
2021/09/24 07:54:02;;;;;;;2.83;2.20;;;;;;;11.64;61.72;98342.63;5145333;27;20039;-51
2021/09/24 07:56:28;;;;;;;3.63;2.35;;;;;;;11.47;62.70;98339.25;5145560;27;20509;-52
2021/09/24 07:58:55;;;;;;;6.55;2.20;;;;;;;11.38;63.17;98319.00;5141312;27;20053;-49
2021/09/24 08:01:24;;;;;;;5.85;2.20;;;;;;;11.29;63.33;98339.53;5166079;27;20040;-49
2021/09/24 08:03:50;;;;;;;5.22;2.70;;;;;;;11.08;63.70;98304.34;5166232;27;20527;-49
2021/09/24 08:06:17;;;;;;;3.70;2.40;;;;;;;11.27;63.68;98317.94;5166130;27;20045;-52
2021/09/24 08:08:43;;;;;;;4.75;2.45;;;;;;;11.41;63.96;98325.75;5153976;27;20080;-49
2021/09/24 08:11:09;;;;;;;4.15;2.63;;;;;;;11.51;63.55;98308.72;5144814;27;20050;-52
2021/09/24 08:13:35;;;;;;;3.28;2.40;;;;;;;11.64;63.23;98317.44;5145426;27;20046;-50
2021/09/24 08:16:04;;;;;;;4.72;2.28;;;;;;;11.70;63.58;98321.44;5145356;27;20051;-51
2021/09/24 08:18:30;;;;;;;6.20;2.80;;;;;;;11.47;63.59;98310.63;5144799;27;20049;-52
2021/09/24 08:20:58;;;;;;;4.40;2.72;;;;;;;11.26;63.41;98303.25;5143642;27;20035;-51
2021/09/24 08:23:24;;;;;;;4.60;3.10;;;;;;;11.20;64.10;98316.66;5144106;27;20042;-50
2021/09/24 08:25:50;;;;;;;4.38;2.88;;;;;;;11.23;64.66;98309.50;5144950;27;20043;-53
2021/09/24 08:28:16;;;;;;;4.82;2.83;;;;;;;11.29;64.80;98314.34;5143654;27;20043;-53
2021/09/24 08:30:42;;;;;;;5.55;2.80;;;;;;;11.29;64.75;98303.09;5144812;27;20066;-51
2021/09/24 08:33:08;;;;;;;3.92;3.00;;;;;;;11.30;64.79;98308.22;5144928;27;20534;-52
2021/09/24 08:35:35;;;;;;;5.93;3.75;;;;;;;11.28;64.73;98298.81;5152531;27;20054;-55
2021/09/24 08:38:00;;;;;;;7.97;3.15;;;;;;;11.41;65.05;98300.59;5148940;27;20042;-54
2021/09/24 08:40:28;;;;;;;8.38;3.40;;;;;;;11.48;65.23;98295.84;5131000;27;20062;-50
2021/09/24 08:42:54;;;;;;;4.00;2.70;;;;;;;11.51;65.54;98297.44;5131058;27;20139;-48
2021/09/24 08:45:31;;;;;;;5.22;2.97;;;;;;;11.59;65.22;98297.81;5129867;27;20092;-48
2021/09/24 08:48:02;;;;;;;5.13;3.33;;;;;;;11.68;65.24;98287.69;5130705;27;20039;-52
2021/09/24 08:50:30;;;;;;;6.50;3.40;;;;;;;11.83;65.21;98286.75;5150578;27;20046;-52
2021/09/24 09:05:05;;;;;;;7.55;3.55;;;;;;;12.70;62.08;98286.44;5063400;28;20389;-54
2021/09/24 09:07:31;;;;;;;4.00;3.28;;;;;;;12.92;61.73;98271.06;5063703;28;20037;-55
2021/09/24 09:09:58;;;;;;;5.10;3.35;;;;;;;13.89;59.15;98280.06;5014140;28;20075;-60
2021/09/24 09:12:25;;;;;;;4.82;3.30;;;;;;;14.15;58.24;98262.53;5024305;28;20710;-56
2021/09/24 09:15:12;;;;;;;3.90;2.90;;;;;;;14.04;58.51;98288.59;5057479;28;20044;-55
2021/09/24 09:17:44;;;;;;;8.48;3.60;;;;;;;13.91;58.70;98272.97;5043613;28;20072;-55
2021/09/24 09:20:19;;;;;;;5.78;3.60;;;;;;;13.67;59.42;98287.72;5026840;28;20164;-55
2021/09/24 09:22:49;;;;;;;4.63;2.78;;;;;;;13.31;59.27;98275.41;5023600;28;20055;-56
2021/09/24 09:25:25;;;;;;;5.72;3.00;;;;;;;13.23;59.34;98266.44;5023371;28;20046;-55
2021/09/24 09:27:52;;;;;;;7.22;3.17;;;;;;;13.19;59.80;98271.00;5030280;28;20045;-55
2021/09/24 09:30:18;;;;;;;5.32;3.38;;;;;;;13.08;59.94;98257.84;5036804;28;20105;-56
2021/09/24 09:33:08;;;;;;;8.85;3.13;;;;;;;13.03;59.98;98260.72;5023031;28;20045;-57
2021/09/24 09:35:37;;;;;;;;;;;;;;;12.96;60.20;98256.03;5005934;28;20076;-56
2021/09/24 09:38:03;;;;;;;4.72;2.83;;;;;;;12.70;60.30;98262.97;5022679;28;19917;-56
2021/09/24 09:40:29;;;;;;;3.92;2.78;;;;;;;12.36;61.10;98256.50;5020587;28;20424;-57
2021/09/24 09:42:57;;;;;;;5.03;2.97;;;;;;;12.41;61.41;98262.25;5022005;28;20064;-54
2021/09/24 09:45:24;;;;;;;5.53;2.67;;;;;;;12.33;61.64;98269.75;5022743;28;20048;-57
2021/09/24 09:47:50;;;;;;;5.53;2.90;;;;;;;12.21;61.35;98252.28;5004985;28;20114;-55
2021/09/24 09:50:20;;;;;;;3.80;2.70;;;;;;;12.21;61.65;98254.88;5021828;28;20091;-57
2021/09/24 09:52:53;;;;;;;6.07;2.53;;;;;;;12.20;61.30;98255.81;5003814;28;20033;-55
2021/09/24 09:55:20;;;;;;;6.88;2.83;;;;;;;12.16;61.27;98255.19;5022385;28;20049;-56
2021/09/24 09:57:54;;;;;;;4.97;2.67;;;;;;;12.34;61.04;98262.75;5022382;28;20508;-55
2021/09/24 10:00:20;;;;;;;6.30;2.83;;;;;;;12.27;60.73;98257.09;5022544;28;20033;-53
2021/09/24 10:02:47;;;;;;;5.15;2.53;;;;;;;12.29;61.40;98257.84;5042423;28;20043;-55
2021/09/24 10:05:50;;;;;;;5.32;2.80;;;;;;;12.32;61.46;98247.22;5053528;28;20044;-57
2021/09/24 10:08:22;;;;;;;4.50;2.67;;;;;;;12.18;62.27;98258.53;4967795;28;20069;-57
2021/09/24 10:11:00;;;;;;;4.45;2.55;;;;;;;12.05;62.55;98254.19;5002920;28;20057;-55
2021/09/24 10:13:29;;;;;;;3.40;2.83;;;;;;;11.87;62.84;98250.97;5009132;28;20125;-56
2021/09/24 10:15:54;;;;;;;3.28;2.60;;;;;;;11.85;62.93;98247.63;5009251;28;20175;-55
2021/09/24 10:18:20;;;;;;;5.60;3.10;;;;;;;11.82;63.10;98242.63;5009183;28;20078;-56
2021/09/24 10:20:47;;;;;;;6.80;2.92;;;;;;;11.90;63.65;98263.78;5024314;28;20084;-57
2021/09/24 10:23:13;;;;;;;5.63;3.15;;;;;;;11.80;63.80;98250.50;5009358;28;20095;-56
2021/09/24 10:25:39;;;;;;;4.82;2.90;;;;;;;11.84;64.22;98264.16;5009243;28;20825;-57
2021/09/24 10:28:09;;;;;;;3.95;2.78;;;;;;;11.71;64.50;98276.25;5024381;28;20042;-56
2021/09/24 10:30:37;;;;;;;6.13;2.80;;;;;;;11.70;64.36;98261.56;5004847;28;20048;-56
2021/09/24 10:33:06;;;;;;;5.85;2.95;;;;;;;11.73;64.41;98258.78;5000574;28;20046;-54
2021/09/24 10:35:49;;;;;;;4.03;2.70;;;;;;;11.77;64.73;98258.53;5008842;28;20588;-57
2021/09/24 10:38:17;;;;;;;8.55;3.40;;;;;;;11.77;65.21;98258.53;5008729;28;20104;-56
2021/09/24 10:41:05;;;;;;;3.92;2.90;;;;;;;11.83;65.39;98255.53;5008484;28;20420;-56
2021/09/24 10:43:48;;;;;;;7.65;3.20;;;;;;;11.94;65.10;98251.41;4990972;28;20095;-57
2021/09/24 10:46:40;;;;;;;5.05;3.60;;;;;;;11.86;65.76;98257.94;5008821;28;20088;-54
2021/09/24 10:49:16;;;;;;;4.82;3.22;;;;;;;11.77;66.21;98253.31;5008832;28;20034;-54
2021/09/24 10:51:57;;;;;;;5.40;2.83;;;;;;;11.74;65.90;98253.50;5008622;28;20512;-55
2021/09/24 10:54:25;;;;;;;5.40;3.33;;;;;;;11.71;65.86;98256.28;4990768;28;20128;-55
2021/09/24 10:57:05;;;;;;;6.30;2.53;;;;;;;11.62;66.10;98243.78;5008470;28;20111;-54
2021/09/24 10:59:34;;;;;;;3.10;2.20;;;;;;;11.60;66.13;98255.25;5008655;28;20428;-57
2021/09/24 11:02:39;;;;;;;2.90;2.20;;;;;;;11.44;64.30;98248.38;4991064;28;20611;-56
2021/09/24 11:05:07;;;;;;;3.20;2.22;;;;;;;11.45;64.87;98252.66;4991408;28;20568;-57
2021/09/24 11:07:34;;;;;;;4.22;2.20;;;;;;;11.50;64.38;98239.34;5008242;28;20401;-58
2021/09/24 11:10:04;;;;;;;2.78;1.98;;;;;;;11.43;64.10;98249.28;5023298;28;20044;-56
2021/09/24 11:12:30;;;;;;;4.75;1.75;;;;;;;11.30;63.73;98248.38;5008208;28;20040;-57
2021/09/24 11:15:14;;;;;;;3.08;1.77;;;;;;;11.35;62.41;98254.16;5008216;28;20050;-57
2021/09/24 11:17:43;;;;;;;3.45;1.90;;;;;;;11.43;62.33;98256.25;5007523;28;20042;-56
2021/09/24 11:20:32;;;;;;;3.05;1.65;;;;;;;11.61;62.09;98252.56;5007793;28;20115;-56
2021/09/24 11:22:59;;;;;;;3.17;2.10;;;;;;;11.87;61.54;98241.41;4990415;28;20076;-54
2021/09/24 11:25:29;;;;;;;5.88;2.45;;;;;;;11.95;61.36;98250.47;4998376;28;20041;-57
2021/09/24 11:27:55;;;;;;;3.75;1.90;;;;;;;11.84;61.57;98266.78;5010399;28;20195;-56
2021/09/24 11:30:25;;;;;;;3.22;1.73;;;;;;;11.71;60.95;98258.88;5026256;28;20037;-54
2021/09/24 11:32:54;;;;;;;2.22;1.70;;;;;;;11.67;60.93;98264.38;5007420;28;20034;-55
2021/09/24 11:35:28;;;;;;;3.17;2.00;;;;;;;11.66;60.97;98262.69;5007248;28;20054;-56
2021/09/24 11:38:03;;;;;;;3.20;2.00;;;;;;;11.67;61.12;98257.34;5007420;28;20044;-56
2021/09/24 11:40:31;;;;;;;2.55;1.77;;;;;;;11.66;61.11;98260.09;5006874;28;20041;-56
2021/09/24 11:42:59;;;;;;;5.55;1.90;;;;;;;11.73;61.08;98251.81;5007174;28;20046;-55
2021/09/24 11:45:29;;;;;;;2.72;1.88;;;;;;;11.90;60.39;98253.38;5006995;28;20413;-55
2021/09/24 11:48:01;;;;;;;2.95;1.83;;;;;;;12.04;60.33;98255.09;5007485;28;20052;-57
2021/09/24 11:50:30;;;;;;;2.33;1.80;;;;;;;12.26;59.56;98250.22;5007395;28;20535;-54
2021/09/24 11:52:57;;;;;;;4.35;2.38;;;;;;;12.44;59.24;98243.00;5026868;28;20415;-57
2021/09/24 11:55:35;;;;;;;3.53;1.83;;;;;;;12.66;57.97;98253.69;5026841;28;20128;-56
2021/09/24 11:58:07;;;;;;;2.97;2.28;;;;;;;12.82;57.82;98254.38;5008510;28;20464;-57
2021/09/24 12:00:42;;;;;;;3.70;2.60;;;;;;;12.89;57.82;98234.75;5007097;28;20416;-58